sensor_id;sensor_type;location;lat;lon;timestamp;P1;durP1;ratioP1;P2;durP2;ratioP2
62258;SDS011;48241;48.824;10.102;2023-09-18T00:00:42;4.80;;;4.30;;
62258;SDS011;48241;48.824;10.102;2023-09-18T00:03:17;4.60;;;4.20;;
62258;SDS011;48241;48.824;10.102;2023-09-18T00:05:44;4.20;;;3.85;;
62258;SDS011;48241;48.824;10.102;2023-09-18T00:08:11;4.15;;;3.75;;
62258;SDS011;48241;48.824;10.102;2023-09-18T00:10:36;4.20;;;3.80;;
62258;SDS011;48241;48.824;10.102;2023-09-18T00:13:02;4.32;;;3.92;;
62258;SDS011;48241;48.824;10.102;2023-09-18T00:15:28;5.65;;;3.83;;
62258;SDS011;48241;48.824;10.102;2023-09-18T00:17:53;4.15;;;3.65;;
62258;SDS011;48241;48.824;10.102;2023-09-18T00:20:19;5.10;;;3.90;;
62258;SDS011;48241;48.824;10.102;2023-09-18T00:22:45;4.82;;;4.32;;
62258;SDS011;48241;48.824;10.102;2023-09-18T00:25:11;5.78;;;4.15;;
62258;SDS011;48241;48.824;10.102;2023-09-18T00:27:38;4.82;;;4.20;;
62258;SDS011;48241;48.824;10.102;2023-09-18T00:30:04;6.70;;;4.03;;
62258;SDS011;48241;48.824;10.102;2023-09-18T00:32:31;5.82;;;4.93;;
62258;SDS011;48241;48.824;10.102;2023-09-18T00:34:56;4.57;;;4.15;;
62258;SDS011;48241;48.824;10.102;2023-09-18T00:37:22;4.95;;;4.25;;
62258;SDS011;48241;48.824;10.102;2023-09-18T00:39:49;5.10;;;4.60;;
62258;SDS011;48241;48.824;10.102;2023-09-18T00:42:14;6.30;;;4.47;;
62258;SDS011;48241;48.824;10.102;2023-09-18T00:44:42;6.18;;;4.30;;
62258;SDS011;48241;48.824;10.102;2023-09-18T00:47:08;5.28;;;4.28;;
62258;SDS011;48241;48.824;10.102;2023-09-18T00:49:35;5.07;;;4.57;;
62258;SDS011;48241;48.824;10.102;2023-09-18T00:52:03;4.63;;;4.20;;
62258;SDS011;48241;48.824;10.102;2023-09-18T00:54:30;5.10;;;4.22;;
62258;SDS011;48241;48.824;10.102;2023-09-18T00:56:56;5.03;;;4.53;;
62258;SDS011;48241;48.824;10.102;2023-09-18T00:59:22;4.43;;;4.03;;
62258;SDS011;48241;48.824;10.102;2023-09-18T01:01:48;4.25;;;3.95;;
62258;SDS011;48241;48.824;10.102;2023-09-18T01:04:16;4.63;;;4.18;;
62258;SDS011;48241;48.824;10.102;2023-09-18T01:06:42;5.72;;;4.32;;
62258;SDS011;48241;48.824;10.102;2023-09-18T01:09:07;4.60;;;4.20;;
62258;SDS011;48241;48.824;10.102;2023-09-18T01:14:23;4.28;;;3.95;;
62258;SDS011;48241;48.824;10.102;2023-09-18T01:16:57;4.70;;;4.20;;
62258;SDS011;48241;48.824;10.102;2023-09-18T01:19:40;4.63;;;4.22;;
62258;SDS011;48241;48.824;10.102;2023-09-18T01:22:07;6.15;;;4.30;;
62258;SDS011;48241;48.824;10.102;2023-09-18T01:24:35;5.15;;;4.65;;
62258;SDS011;48241;48.824;10.102;2023-09-18T01:27:01;4.13;;;3.65;;
62258;SDS011;48241;48.824;10.102;2023-09-18T01:29:31;5.45;;;4.82;;
62258;SDS011;48241;48.824;10.102;2023-09-18T01:31:56;4.90;;;4.40;;
62258;SDS011;48241;48.824;10.102;2023-09-18T01:34:25;4.88;;;4.38;;
62258;SDS011;48241;48.824;10.102;2023-09-18T01:36:58;6.70;;;4.10;;
62258;SDS011;48241;48.824;10.102;2023-09-18T01:39:25;6.00;;;4.88;;
62258;SDS011;48241;48.824;10.102;2023-09-18T01:41:56;5.72;;;4.32;;
62258;SDS011;48241;48.824;10.102;2023-09-18T01:44:26;5.63;;;5.03;;
62258;SDS011;48241;48.824;10.102;2023-09-18T01:46:53;4.32;;;3.92;;
62258;SDS011;48241;48.824;10.102;2023-09-18T01:49:31;5.05;;;4.30;;
62258;SDS011;48241;48.824;10.102;2023-09-18T01:51:58;4.63;;;3.92;;
62258;SDS011;48241;48.824;10.102;2023-09-18T01:54:24;4.97;;;4.50;;
62258;SDS011;48241;48.824;10.102;2023-09-18T01:56:50;4.20;;;3.78;;
62258;SDS011;48241;48.824;10.102;2023-09-18T01:59:20;6.22;;;4.78;;
62258;SDS011;48241;48.824;10.102;2023-09-18T02:01:46;4.78;;;4.25;;
62258;SDS011;48241;48.824;10.102;2023-09-18T02:04:12;6.72;;;5.22;;
62258;SDS011;48241;48.824;10.102;2023-09-18T02:06:38;5.32;;;4.40;;
62258;SDS011;48241;48.824;10.102;2023-09-18T02:09:05;5.50;;;4.22;;
62258;SDS011;48241;48.824;10.102;2023-09-18T02:11:30;4.80;;;4.30;;
62258;SDS011;48241;48.824;10.102;2023-09-18T02:13:56;5.05;;;4.22;;
62258;SDS011;48241;48.824;10.102;2023-09-18T02:16:22;4.82;;;4.35;;
62258;SDS011;48241;48.824;10.102;2023-09-18T02:18:49;3.97;;;3.58;;
62258;SDS011;48241;48.824;10.102;2023-09-18T02:21:21;8.00;;;4.63;;
62258;SDS011;48241;48.824;10.102;2023-09-18T02:23:50;5.80;;;4.28;;
62258;SDS011;48241;48.824;10.102;2023-09-18T02:26:17;6.05;;;4.40;;
62258;SDS011;48241;48.824;10.102;2023-09-18T02:28:43;5.75;;;4.28;;
62258;SDS011;48241;48.824;10.102;2023-09-18T02:31:09;4.22;;;3.75;;
62258;SDS011;48241;48.824;10.102;2023-09-18T02:33:34;4.90;;;4.10;;
62258;SDS011;48241;48.824;10.102;2023-09-18T02:36:00;4.53;;;4.05;;
62258;SDS011;48241;48.824;10.102;2023-09-18T02:38:27;7.25;;;3.90;;
62258;SDS011;48241;48.824;10.102;2023-09-18T02:40:53;4.88;;;3.63;;
62258;SDS011;48241;48.824;10.102;2023-09-18T02:43:19;6.57;;;3.53;;
62258;SDS011;48241;48.824;10.102;2023-09-18T02:45:45;5.43;;;3.65;;
62258;SDS011;48241;48.824;10.102;2023-09-18T02:48:11;4.30;;;3.90;;
62258;SDS011;48241;48.824;10.102;2023-09-18T02:50:36;8.07;;;3.75;;
62258;SDS011;48241;48.824;10.102;2023-09-18T02:53:02;5.43;;;3.55;;
62258;SDS011;48241;48.824;10.102;2023-09-18T02:55:28;3.78;;;2.95;;
62258;SDS011;48241;48.824;10.102;2023-09-18T02:57:54;5.32;;;3.47;;
62258;SDS011;48241;48.824;10.102;2023-09-18T03:00:19;4.00;;;3.28;;
62258;SDS011;48241;48.824;10.102;2023-09-18T03:02:46;6.03;;;3.80;;
62258;SDS011;48241;48.824;10.102;2023-09-18T03:05:11;7.20;;;4.13;;
62258;SDS011;48241;48.824;10.102;2023-09-18T03:07:37;6.50;;;4.00;;
62258;SDS011;48241;48.824;10.102;2023-09-18T03:10:02;7.72;;;5.50;;
62258;SDS011;48241;48.824;10.102;2023-09-18T03:12:29;8.93;;;4.30;;
62258;SDS011;48241;48.824;10.102;2023-09-18T03:14:56;4.45;;;3.60;;
62258;SDS011;48241;48.824;10.102;2023-09-18T03:17:22;4.68;;;3.47;;
62258;SDS011;48241;48.824;10.102;2023-09-18T03:19:48;6.50;;;3.60;;
62258;SDS011;48241;48.824;10.102;2023-09-18T03:22:14;4.47;;;3.55;;
62258;SDS011;48241;48.824;10.102;2023-09-18T03:24:40;6.35;;;3.70;;
62258;SDS011;48241;48.824;10.102;2023-09-18T03:27:05;4.65;;;3.58;;
62258;SDS011;48241;48.824;10.102;2023-09-18T03:29:31;6.28;;;3.53;;
62258;SDS011;48241;48.824;10.102;2023-09-18T03:31:57;5.70;;;3.50;;
62258;SDS011;48241;48.824;10.102;2023-09-18T03:34:24;8.32;;;3.78;;
62258;SDS011;48241;48.824;10.102;2023-09-18T03:36:53;5.20;;;3.58;;
62258;SDS011;48241;48.824;10.102;2023-09-18T03:39:19;9.05;;;3.75;;
62258;SDS011;48241;48.824;10.102;2023-09-18T03:41:45;6.63;;;3.70;;
62258;SDS011;48241;48.824;10.102;2023-09-18T03:44:10;8.30;;;3.20;;
62258;SDS011;48241;48.824;10.102;2023-09-18T03:46:36;4.90;;;3.55;;
62258;SDS011;48241;48.824;10.102;2023-09-18T03:49:02;7.00;;;3.88;;
62258;SDS011;48241;48.824;10.102;2023-09-18T03:51:28;4.68;;;3.22;;
62258;SDS011;48241;48.824;10.102;2023-09-18T03:53:54;4.57;;;3.50;;
62258;SDS011;48241;48.824;10.102;2023-09-18T03:56:20;6.47;;;3.28;;
62258;SDS011;48241;48.824;10.102;2023-09-18T03:58:47;6.22;;;3.30;;
62258;SDS011;48241;48.824;10.102;2023-09-18T04:01:15;5.88;;;3.28;;
62258;SDS011;48241;48.824;10.102;2023-09-18T04:03:41;7.82;;;2.97;;
62258;SDS011;48241;48.824;10.102;2023-09-18T04:06:06;8.75;;;3.40;;
62258;SDS011;48241;48.824;10.102;2023-09-18T04:08:32;9.65;;;3.60;;
62258;SDS011;48241;48.824;10.102;2023-09-18T04:10:58;6.85;;;3.33;;
62258;SDS011;48241;48.824;10.102;2023-09-18T04:13:24;6.32;;;3.50;;
62258;SDS011;48241;48.824;10.102;2023-09-18T04:15:49;9.45;;;3.67;;
62258;SDS011;48241;48.824;10.102;2023-09-18T04:18:16;8.30;;;3.50;;
62258;SDS011;48241;48.824;10.102;2023-09-18T04:20:42;6.78;;;3.15;;
62258;SDS011;48241;48.824;10.102;2023-09-18T04:26:02;7.50;;;3.20;;
62258;SDS011;48241;48.824;10.102;2023-09-18T04:28:28;7.28;;;3.95;;
62258;SDS011;48241;48.824;10.102;2023-09-18T04:30:53;10.02;;;3.85;;
62258;SDS011;48241;48.824;10.102;2023-09-18T04:33:19;8.95;;;3.72;;
62258;SDS011;48241;48.824;10.102;2023-09-18T04:35:46;6.28;;;3.30;;
62258;SDS011;48241;48.824;10.102;2023-09-18T04:38:12;8.05;;;3.67;;
62258;SDS011;48241;48.824;10.102;2023-09-18T04:40:40;5.60;;;3.40;;
62258;SDS011;48241;48.824;10.102;2023-09-18T04:43:06;8.10;;;3.65;;
62258;SDS011;48241;48.824;10.102;2023-09-18T04:45:31;10.60;;;3.75;;
62258;SDS011;48241;48.824;10.102;2023-09-18T04:47:57;9.68;;;3.72;;
62258;SDS011;48241;48.824;10.102;2023-09-18T04:50:23;9.45;;;3.50;;
62258;SDS011;48241;48.824;10.102;2023-09-18T04:52:51;5.53;;;3.03;;
62258;SDS011;48241;48.824;10.102;2023-09-18T04:55:19;6.75;;;3.35;;
62258;SDS011;48241;48.824;10.102;2023-09-18T04:57:44;8.07;;;2.88;;
62258;SDS011;48241;48.824;10.102;2023-09-18T05:00:10;6.85;;;3.08;;
62258;SDS011;48241;48.824;10.102;2023-09-18T05:02:38;4.78;;;3.15;;
62258;SDS011;48241;48.824;10.102;2023-09-18T05:05:05;6.78;;;3.28;;
62258;SDS011;48241;48.824;10.102;2023-09-18T05:07:31;7.60;;;3.40;;
62258;SDS011;48241;48.824;10.102;2023-09-18T05:09:57;5.55;;;3.13;;
62258;SDS011;48241;48.824;10.102;2023-09-18T05:12:23;5.82;;;3.40;;
62258;SDS011;48241;48.824;10.102;2023-09-18T05:14:48;7.97;;;3.60;;
62258;SDS011;48241;48.824;10.102;2023-09-18T05:17:16;8.85;;;3.38;;
62258;SDS011;48241;48.824;10.102;2023-09-18T05:19:42;6.93;;;3.58;;
62258;SDS011;48241;48.824;10.102;2023-09-18T05:22:08;7.82;;;3.38;;
62258;SDS011;48241;48.824;10.102;2023-09-18T05:24:37;4.78;;;3.10;;
62258;SDS011;48241;48.824;10.102;2023-09-18T05:27:03;5.47;;;3.13;;
62258;SDS011;48241;48.824;10.102;2023-09-18T05:29:31;7.65;;;3.10;;
62258;SDS011;48241;48.824;10.102;2023-09-18T05:31:57;6.85;;;3.28;;
62258;SDS011;48241;48.824;10.102;2023-09-18T05:34:22;7.10;;;3.20;;
62258;SDS011;48241;48.824;10.102;2023-09-18T05:36:48;8.15;;;3.33;;
62258;SDS011;48241;48.824;10.102;2023-09-18T05:39:15;9.10;;;3.70;;
62258;SDS011;48241;48.824;10.102;2023-09-18T05:41:40;3.65;;;2.95;;
62258;SDS011;48241;48.824;10.102;2023-09-18T05:44:06;6.13;;;3.28;;
62258;SDS011;48241;48.824;10.102;2023-09-18T05:46:35;6.57;;;3.50;;
62258;SDS011;48241;48.824;10.102;2023-09-18T05:49:01;7.30;;;3.40;;
62258;SDS011;48241;48.824;10.102;2023-09-18T05:51:27;7.25;;;3.10;;
62258;SDS011;48241;48.824;10.102;2023-09-18T05:53:53;8.13;;;3.17;;
62258;SDS011;48241;48.824;10.102;2023-09-18T05:56:19;7.60;;;3.13;;
62258;SDS011;48241;48.824;10.102;2023-09-18T05:58:44;6.60;;;3.40;;
62258;SDS011;48241;48.824;10.102;2023-09-18T06:01:10;7.32;;;3.50;;
62258;SDS011;48241;48.824;10.102;2023-09-18T06:03:35;7.82;;;3.53;;
62258;SDS011;48241;48.824;10.102;2023-09-18T06:06:01;6.85;;;3.42;;
62258;SDS011;48241;48.824;10.102;2023-09-18T06:08:28;7.53;;;3.30;;
62258;SDS011;48241;48.824;10.102;2023-09-18T06:10:55;6.80;;;3.22;;
62258;SDS011;48241;48.824;10.102;2023-09-18T06:13:21;10.45;;;3.30;;
62258;SDS011;48241;48.824;10.102;2023-09-18T06:15:47;4.38;;;2.78;;
62258;SDS011;48241;48.824;10.102;2023-09-18T06:18:13;6.90;;;3.13;;
62258;SDS011;48241;48.824;10.102;2023-09-18T06:20:39;5.63;;;3.00;;
62258;SDS011;48241;48.824;10.102;2023-09-18T06:23:06;8.98;;;3.17;;
62258;SDS011;48241;48.824;10.102;2023-09-18T06:25:31;7.60;;;2.80;;
62258;SDS011;48241;48.824;10.102;2023-09-18T06:27:57;6.72;;;2.88;;
62258;SDS011;48241;48.824;10.102;2023-09-18T06:30:23;4.88;;;2.78;;
62258;SDS011;48241;48.824;10.102;2023-09-18T06:32:48;7.18;;;2.85;;
62258;SDS011;48241;48.824;10.102;2023-09-18T06:35:14;7.25;;;2.58;;
62258;SDS011;48241;48.824;10.102;2023-09-18T06:37:39;6.55;;;2.80;;
62258;SDS011;48241;48.824;10.102;2023-09-18T06:40:05;4.80;;;2.70;;
62258;SDS011;48241;48.824;10.102;2023-09-18T06:42:31;11.68;;;2.97;;
62258;SDS011;48241;48.824;10.102;2023-09-18T06:44:57;8.40;;;2.50;;
62258;SDS011;48241;48.824;10.102;2023-09-18T06:47:23;7.30;;;2.63;;
62258;SDS011;48241;48.824;10.102;2023-09-18T06:49:49;8.45;;;2.97;;
62258;SDS011;48241;48.824;10.102;2023-09-18T06:52:17;6.10;;;2.30;;
62258;SDS011;48241;48.824;10.102;2023-09-18T06:54:42;10.65;;;3.55;;
62258;SDS011;48241;48.824;10.102;2023-09-18T06:57:09;9.02;;;2.65;;
62258;SDS011;48241;48.824;10.102;2023-09-18T06:59:35;9.77;;;2.50;;
62258;SDS011;48241;48.824;10.102;2023-09-18T07:02:01;7.55;;;2.65;;
62258;SDS011;48241;48.824;10.102;2023-09-18T07:04:26;7.00;;;2.63;;
62258;SDS011;48241;48.824;10.102;2023-09-18T07:06:52;10.02;;;3.00;;
62258;SDS011;48241;48.824;10.102;2023-09-18T07:09:18;8.35;;;2.63;;
62258;SDS011;48241;48.824;10.102;2023-09-18T07:11:44;7.43;;;2.67;;
62258;SDS011;48241;48.824;10.102;2023-09-18T07:14:10;8.30;;;2.58;;
62258;SDS011;48241;48.824;10.102;2023-09-18T07:16:35;6.50;;;2.38;;
62258;SDS011;48241;48.824;10.102;2023-09-18T07:19:01;7.80;;;2.72;;
62258;SDS011;48241;48.824;10.102;2023-09-18T07:21:29;10.40;;;2.58;;
62258;SDS011;48241;48.824;10.102;2023-09-18T07:23:55;7.50;;;2.30;;
62258;SDS011;48241;48.824;10.102;2023-09-18T07:26:21;6.13;;;2.40;;
62258;SDS011;48241;48.824;10.102;2023-09-18T07:28:46;6.90;;;2.70;;
62258;SDS011;48241;48.824;10.102;2023-09-18T07:31:13;6.85;;;2.95;;
62258;SDS011;48241;48.824;10.102;2023-09-18T07:33:39;7.53;;;2.30;;
62258;SDS011;48241;48.824;10.102;2023-09-18T07:36:05;9.52;;;2.53;;
62258;SDS011;48241;48.824;10.102;2023-09-18T07:38:31;8.20;;;2.67;;
62258;SDS011;48241;48.824;10.102;2023-09-18T07:40:57;6.20;;;2.50;;
62258;SDS011;48241;48.824;10.102;2023-09-18T07:43:23;5.90;;;2.50;;
62258;SDS011;48241;48.824;10.102;2023-09-18T07:45:50;8.80;;;2.30;;
62258;SDS011;48241;48.824;10.102;2023-09-18T07:48:15;7.45;;;2.10;;
62258;SDS011;48241;48.824;10.102;2023-09-18T07:50:44;7.80;;;2.33;;
62258;SDS011;48241;48.824;10.102;2023-09-18T07:53:10;6.38;;;2.13;;
62258;SDS011;48241;48.824;10.102;2023-09-18T07:55:36;6.25;;;1.70;;
62258;SDS011;48241;48.824;10.102;2023-09-18T07:58:01;5.38;;;1.90;;
62258;SDS011;48241;48.824;10.102;2023-09-18T08:00:28;4.18;;;1.77;;
62258;SDS011;48241;48.824;10.102;2023-09-18T08:02:54;6.50;;;1.95;;
62258;SDS011;48241;48.824;10.102;2023-09-18T08:05:25;6.13;;;2.05;;
62258;SDS011;48241;48.824;10.102;2023-09-18T08:07:55;7.03;;;1.90;;
62258;SDS011;48241;48.824;10.102;2023-09-18T08:10:22;5.78;;;1.70;;
62258;SDS011;48241;48.824;10.102;2023-09-18T08:12:48;8.25;;;1.80;;
62258;SDS011;48241;48.824;10.102;2023-09-18T08:15:16;8.40;;;1.88;;
62258;SDS011;48241;48.824;10.102;2023-09-18T08:17:42;8.15;;;2.03;;
62258;SDS011;48241;48.824;10.102;2023-09-18T08:20:08;5.45;;;1.60;;
62258;SDS011;48241;48.824;10.102;2023-09-18T08:22:38;6.97;;;1.65;;
62258;SDS011;48241;48.824;10.102;2023-09-18T08:25:04;5.88;;;1.60;;
62258;SDS011;48241;48.824;10.102;2023-09-18T08:27:33;10.93;;;2.15;;
62258;SDS011;48241;48.824;10.102;2023-09-18T08:29:58;6.57;;;1.80;;
62258;SDS011;48241;48.824;10.102;2023-09-18T08:32:24;6.07;;;1.50;;
62258;SDS011;48241;48.824;10.102;2023-09-18T08:34:49;6.82;;;1.52;;
62258;SDS011;48241;48.824;10.102;2023-09-18T08:37:15;5.28;;;1.48;;
62258;SDS011;48241;48.824;10.102;2023-09-18T08:39:41;4.70;;;1.40;;
62258;SDS011;48241;48.824;10.102;2023-09-18T08:42:07;4.25;;;1.40;;
62258;SDS011;48241;48.824;10.102;2023-09-18T08:44:35;5.07;;;1.50;;
62258;SDS011;48241;48.824;10.102;2023-09-18T08:47:04;5.65;;;1.48;;
62258;SDS011;48241;48.824;10.102;2023-09-18T08:49:31;6.93;;;1.20;;
62258;SDS011;48241;48.824;10.102;2023-09-18T08:51:57;4.40;;;1.10;;
62258;SDS011;48241;48.824;10.102;2023-09-18T08:54:24;4.43;;;1.27;;
62258;SDS011;48241;48.824;10.102;2023-09-18T08:56:51;3.70;;;1.33;;
62258;SDS011;48241;48.824;10.102;2023-09-18T08:59:16;5.20;;;1.42;;
62258;SDS011;48241;48.824;10.102;2023-09-18T09:01:44;4.75;;;1.48;;
62258;SDS011;48241;48.824;10.102;2023-09-18T09:04:10;5.28;;;1.52;;
62258;SDS011;48241;48.824;10.102;2023-09-18T09:06:36;3.40;;;1.42;;
62258;SDS011;48241;48.824;10.102;2023-09-18T09:09:02;5.15;;;1.38;;
62258;SDS011;48241;48.824;10.102;2023-09-18T09:11:28;5.53;;;1.40;;
62258;SDS011;48241;48.824;10.102;2023-09-18T09:14:13;5.50;;;1.27;;
62258;SDS011;48241;48.824;10.102;2023-09-18T09:16:52;5.85;;;1.52;;
62258;SDS011;48241;48.824;10.102;2023-09-18T09:19:27;5.00;;;1.35;;
62258;SDS011;48241;48.824;10.102;2023-09-18T09:21:57;5.47;;;1.20;;
62258;SDS011;48241;48.824;10.102;2023-09-18T09:24:35;5.20;;;1.65;;
62258;SDS011;48241;48.824;10.102;2023-09-18T09:27:05;4.30;;;1.38;;
62258;SDS011;48241;48.824;10.102;2023-09-18T09:29:33;4.03;;;1.50;;
62258;SDS011;48241;48.824;10.102;2023-09-18T09:32:16;2.92;;;1.15;;
62258;SDS011;48241;48.824;10.102;2023-09-18T09:34:43;5.72;;;1.25;;
62258;SDS011;48241;48.824;10.102;2023-09-18T09:37:09;5.90;;;1.58;;
62258;SDS011;48241;48.824;10.102;2023-09-18T09:39:45;4.05;;;1.30;;
62258;SDS011;48241;48.824;10.102;2023-09-18T09:42:14;2.97;;;1.40;;
62258;SDS011;48241;48.824;10.102;2023-09-18T09:44:43;3.83;;;1.05;;
62258;SDS011;48241;48.824;10.102;2023-09-18T09:47:09;5.88;;;1.60;;
62258;SDS011;48241;48.824;10.102;2023-09-18T09:49:46;6.03;;;1.25;;
62258;SDS011;48241;48.824;10.102;2023-09-18T09:52:19;4.63;;;1.23;;
62258;SDS011;48241;48.824;10.102;2023-09-18T09:54:47;3.03;;;1.17;;
62258;SDS011;48241;48.824;10.102;2023-09-18T09:57:13;7.63;;;1.20;;
62258;SDS011;48241;48.824;10.102;2023-09-18T09:59:39;6.35;;;1.17;;
62258;SDS011;48241;48.824;10.102;2023-09-18T10:02:09;5.72;;;1.50;;
62258;SDS011;48241;48.824;10.102;2023-09-18T10:04:39;4.50;;;1.15;;
62258;SDS011;48241;48.824;10.102;2023-09-18T10:07:05;3.42;;;1.10;;
62258;SDS011;48241;48.824;10.102;2023-09-18T10:09:37;2.97;;;1.00;;
62258;SDS011;48241;48.824;10.102;2023-09-18T10:12:09;5.20;;;0.90;;
62258;SDS011;48241;48.824;10.102;2023-09-18T10:14:36;1.98;;;0.80;;
62258;SDS011;48241;48.824;10.102;2023-09-18T10:17:14;3.90;;;0.98;;
62258;SDS011;48241;48.824;10.102;2023-09-18T10:20:02;3.00;;;0.90;;
62258;SDS011;48241;48.824;10.102;2023-09-18T10:22:37;5.90;;;1.17;;
62258;SDS011;48241;48.824;10.102;2023-09-18T10:25:12;2.78;;;0.95;;
62258;SDS011;48241;48.824;10.102;2023-09-18T10:27:44;1.67;;;1.00;;
62258;SDS011;48241;48.824;10.102;2023-09-18T10:30:11;2.75;;;1.00;;
62258;SDS011;48241;48.824;10.102;2023-09-18T10:32:39;5.93;;;1.20;;
62258;SDS011;48241;48.824;10.102;2023-09-18T10:35:06;3.60;;;0.95;;
62258;SDS011;48241;48.824;10.102;2023-09-18T10:37:36;2.55;;;0.88;;
62258;SDS011;48241;48.824;10.102;2023-09-18T10:40:03;2.60;;;1.10;;
62258;SDS011;48241;48.824;10.102;2023-09-18T10:42:33;2.20;;;1.17;;
62258;SDS011;48241;48.824;10.102;2023-09-18T10:45:02;1.00;;;0.68;;
62258;SDS011;48241;48.824;10.102;2023-09-18T10:47:29;3.10;;;0.80;;
62258;SDS011;48241;48.824;10.102;2023-09-18T10:49:56;3.10;;;0.85;;
62258;SDS011;48241;48.824;10.102;2023-09-18T10:52:22;2.63;;;0.90;;
62258;SDS011;48241;48.824;10.102;2023-09-18T10:54:47;3.22;;;0.90;;
62258;SDS011;48241;48.824;10.102;2023-09-18T10:57:13;3.38;;;0.85;;
62258;SDS011;48241;48.824;10.102;2023-09-18T10:59:45;2.85;;;0.80;;
62258;SDS011;48241;48.824;10.102;2023-09-18T11:02:15;2.15;;;0.77;;
62258;SDS011;48241;48.824;10.102;2023-09-18T11:04:41;1.10;;;0.80;;
62258;SDS011;48241;48.824;10.102;2023-09-18T11:07:08;1.63;;;0.65;;
62258;SDS011;48241;48.824;10.102;2023-09-18T11:09:44;1.45;;;0.80;;
62258;SDS011;48241;48.824;10.102;2023-09-18T11:12:10;1.05;;;0.65;;
62258;SDS011;48241;48.824;10.102;2023-09-18T11:14:50;1.10;;;0.85;;
62258;SDS011;48241;48.824;10.102;2023-09-18T11:17:32;2.03;;;0.80;;
62258;SDS011;48241;48.824;10.102;2023-09-18T11:20:21;1.65;;;0.70;;
62258;SDS011;48241;48.824;10.102;2023-09-18T11:28:04;2.30;;;0.90;;
62258;SDS011;48241;48.824;10.102;2023-09-18T11:30:37;3.13;;;1.00;;
62258;SDS011;48241;48.824;10.102;2023-09-18T11:33:04;2.40;;;1.00;;
62258;SDS011;48241;48.824;10.102;2023-09-18T11:35:34;2.65;;;1.10;;
62258;SDS011;48241;48.824;10.102;2023-09-18T11:38:08;3.17;;;1.10;;
62258;SDS011;48241;48.824;10.102;2023-09-18T11:40:36;4.45;;;1.10;;
62258;SDS011;48241;48.824;10.102;2023-09-18T11:45:58;2.25;;;0.90;;
62258;SDS011;48241;48.824;10.102;2023-09-18T11:48:25;2.35;;;1.00;;
62258;SDS011;48241;48.824;10.102;2023-09-18T11:50:58;1.45;;;0.90;;
62258;SDS011;48241;48.824;10.102;2023-09-18T11:53:24;1.67;;;0.77;;
62258;SDS011;48241;48.824;10.102;2023-09-18T11:55:52;1.42;;;0.82;;
62258;SDS011;48241;48.824;10.102;2023-09-18T11:58:18;1.55;;;0.68;;
62258;SDS011;48241;48.824;10.102;2023-09-18T12:00:48;2.08;;;0.80;;
62258;SDS011;48241;48.824;10.102;2023-09-18T12:03:15;2.95;;;0.85;;
62258;SDS011;48241;48.824;10.102;2023-09-18T12:05:43;1.75;;;0.88;;
62258;SDS011;48241;48.824;10.102;2023-09-18T12:08:10;1.15;;;0.77;;
62258;SDS011;48241;48.824;10.102;2023-09-18T12:10:36;1.48;;;0.80;;
62258;SDS011;48241;48.824;10.102;2023-09-18T12:13:06;1.42;;;0.82;;
62258;SDS011;48241;48.824;10.102;2023-09-18T12:15:36;2.03;;;0.70;;
62258;SDS011;48241;48.824;10.102;2023-09-18T12:18:05;4.55;;;1.10;;
62258;SDS011;48241;48.824;10.102;2023-09-18T12:20:32;2.70;;;0.60;;
62258;SDS011;48241;48.824;10.102;2023-09-18T12:22:59;1.83;;;0.90;;
62258;SDS011;48241;48.824;10.102;2023-09-18T12:25:25;2.05;;;0.75;;
62258;SDS011;48241;48.824;10.102;2023-09-18T12:27:51;3.25;;;0.95;;
62258;SDS011;48241;48.824;10.102;2023-09-18T12:30:18;1.65;;;1.02;;
62258;SDS011;48241;48.824;10.102;2023-09-18T12:32:45;3.40;;;1.10;;
62258;SDS011;48241;48.824;10.102;2023-09-18T12:35:13;1.80;;;1.00;;
62258;SDS011;48241;48.824;10.102;2023-09-18T12:37:40;2.85;;;1.17;;
62258;SDS011;48241;48.824;10.102;2023-09-18T12:40:06;2.40;;;1.05;;
62258;SDS011;48241;48.824;10.102;2023-09-18T12:42:45;1.83;;;0.95;;
62258;SDS011;48241;48.824;10.102;2023-09-18T12:45:11;4.28;;;1.17;;
62258;SDS011;48241;48.824;10.102;2023-09-18T12:47:37;1.83;;;1.05;;
62258;SDS011;48241;48.824;10.102;2023-09-18T12:50:04;3.25;;;1.27;;
62258;SDS011;48241;48.824;10.102;2023-09-18T12:52:31;2.95;;;1.27;;
62258;SDS011;48241;48.824;10.102;2023-09-18T12:54:58;3.28;;;1.30;;
62258;SDS011;48241;48.824;10.102;2023-09-18T12:57:24;3.13;;;1.42;;
62258;SDS011;48241;48.824;10.102;2023-09-18T12:59:50;2.60;;;1.40;;
62258;SDS011;48241;48.824;10.102;2023-09-18T13:02:18;4.03;;;1.42;;
62258;SDS011;48241;48.824;10.102;2023-09-18T13:04:53;2.08;;;1.48;;
62258;SDS011;48241;48.824;10.102;2023-09-18T13:07:19;3.45;;;1.48;;
62258;SDS011;48241;48.824;10.102;2023-09-18T13:15:06;4.38;;;1.80;;
62258;SDS011;48241;48.824;10.102;2023-09-18T13:17:46;4.10;;;1.90;;
62258;SDS011;48241;48.824;10.102;2023-09-18T13:22:39;3.33;;;2.03;;
62258;SDS011;48241;48.824;10.102;2023-09-18T13:25:10;4.38;;;1.90;;
62258;SDS011;48241;48.824;10.102;2023-09-18T13:27:38;2.60;;;1.77;;
62258;SDS011;48241;48.824;10.102;2023-09-18T13:30:08;1.95;;;1.50;;
62258;SDS011;48241;48.824;10.102;2023-09-18T13:32:34;2.05;;;1.40;;
62258;SDS011;48241;48.824;10.102;2023-09-18T13:35:03;2.13;;;1.50;;
62258;SDS011;48241;48.824;10.102;2023-09-18T13:37:31;3.13;;;1.70;;
62258;SDS011;48241;48.824;10.102;2023-09-18T13:39:57;3.47;;;1.50;;
62258;SDS011;48241;48.824;10.102;2023-09-18T13:42:26;3.67;;;1.60;;
62258;SDS011;48241;48.824;10.102;2023-09-18T13:44:54;2.38;;;1.30;;
62258;SDS011;48241;48.824;10.102;2023-09-18T13:47:20;3.15;;;1.40;;
62258;SDS011;48241;48.824;10.102;2023-09-18T13:49:46;1.70;;;1.35;;
62258;SDS011;48241;48.824;10.102;2023-09-18T13:52:11;2.08;;;0.88;;
62258;SDS011;48241;48.824;10.102;2023-09-18T13:54:37;1.88;;;1.27;;
62258;SDS011;48241;48.824;10.102;2023-09-18T13:57:03;2.78;;;1.20;;
62258;SDS011;48241;48.824;10.102;2023-09-18T13:59:30;3.85;;;1.30;;
62258;SDS011;48241;48.824;10.102;2023-09-18T14:01:59;4.50;;;1.30;;
62258;SDS011;48241;48.824;10.102;2023-09-18T14:04:24;2.40;;;1.30;;
62258;SDS011;48241;48.824;10.102;2023-09-18T14:06:52;2.85;;;1.33;;
62258;SDS011;48241;48.824;10.102;2023-09-18T14:09:17;2.33;;;1.20;;
62258;SDS011;48241;48.824;10.102;2023-09-18T14:11:44;3.45;;;1.20;;
62258;SDS011;48241;48.824;10.102;2023-09-18T14:14:10;2.13;;;1.17;;
62258;SDS011;48241;48.824;10.102;2023-09-18T14:16:36;2.13;;;1.45;;
62258;SDS011;48241;48.824;10.102;2023-09-18T14:19:01;2.58;;;1.40;;
62258;SDS011;48241;48.824;10.102;2023-09-18T14:21:27;2.50;;;1.48;;
62258;SDS011;48241;48.824;10.102;2023-09-18T14:23:53;2.92;;;1.45;;
62258;SDS011;48241;48.824;10.102;2023-09-18T14:26:19;2.40;;;1.65;;
62258;SDS011;48241;48.824;10.102;2023-09-18T14:28:44;2.30;;;1.77;;
62258;SDS011;48241;48.824;10.102;2023-09-18T14:31:11;2.25;;;1.40;;
62258;SDS011;48241;48.824;10.102;2023-09-18T14:33:37;2.78;;;1.55;;
62258;SDS011;48241;48.824;10.102;2023-09-18T14:36:02;1.83;;;1.60;;
62258;SDS011;48241;48.824;10.102;2023-09-18T14:38:29;2.05;;;1.40;;
62258;SDS011;48241;48.824;10.102;2023-09-18T14:40:54;3.97;;;1.40;;
62258;SDS011;48241;48.824;10.102;2023-09-18T14:43:26;2.03;;;1.48;;
62258;SDS011;48241;48.824;10.102;2023-09-18T14:45:52;4.57;;;1.60;;
62258;SDS011;48241;48.824;10.102;2023-09-18T14:48:18;3.08;;;1.50;;
62258;SDS011;48241;48.824;10.102;2023-09-18T14:50:43;3.08;;;1.50;;
62258;SDS011;48241;48.824;10.102;2023-09-18T14:53:09;3.53;;;1.35;;
62258;SDS011;48241;48.824;10.102;2023-09-18T14:55:34;1.73;;;1.00;;